sensor_id;sensor_type;location;lat;lon;timestamp;pressure;altitude;pressure_sealevel;temperature;humidity
66486;BME280;53303;47.476;8.084;2023-05-12T00:00:27;94968.19;;;21.18;46.87
66486;BME280;53303;47.476;8.084;2023-05-12T00:02:52;94971.19;;;21.20;46.90
66486;BME280;53303;47.476;8.084;2023-05-12T00:05:17;94974.69;;;21.20;46.60
66486;BME280;53303;47.476;8.084;2023-05-12T00:07:45;94970.72;;;21.16;46.82
66486;BME280;53303;47.476;8.084;2023-05-12T00:10:11;94982.72;;;21.24;46.79
66486;BME280;53303;47.476;8.084;2023-05-12T00:12:36;94975.13;;;21.24;46.62
66486;BME280;53303;47.476;8.084;2023-05-12T00:15:02;94977.91;;;21.24;46.88
66486;BME280;53303;47.476;8.084;2023-05-12T00:17:27;94970.19;;;21.17;46.86
66486;BME280;53303;47.476;8.084;2023-05-12T00:19:53;94969.88;;;21.21;46.66
66486;BME280;53303;47.476;8.084;2023-05-12T00:22:18;94965.72;;;21.14;47.00
66486;BME280;53303;47.476;8.084;2023-05-12T00:24:44;94954.38;;;21.12;46.67
66486;BME280;53303;47.476;8.084;2023-05-12T00:27:12;94967.09;;;21.21;46.90
66486;BME280;53303;47.476;8.084;2023-05-12T00:29:41;94967.56;;;21.25;46.63
66486;BME280;53303;47.476;8.084;2023-05-12T00:32:08;94965.09;;;21.21;46.73
66486;BME280;53303;47.476;8.084;2023-05-12T00:34:34;94966.06;;;21.24;46.97
66486;BME280;53303;47.476;8.084;2023-05-12T00:36:59;94953.00;;;21.19;46.70
66486;BME280;53303;47.476;8.084;2023-05-12T00:39:25;94959.00;;;21.23;46.93
66486;BME280;53303;47.476;8.084;2023-05-12T00:41:57;94957.53;;;21.22;46.62
66486;BME280;53303;47.476;8.084;2023-05-12T00:44:23;94942.22;;;21.15;46.91
66486;BME280;53303;47.476;8.084;2023-05-12T00:46:54;94942.44;;;21.17;46.80
66486;BME280;53303;47.476;8.084;2023-05-12T00:49:24;94948.00;;;21.17;46.80
66486;BME280;53303;47.476;8.084;2023-05-12T00:51:50;94938.94;;;21.17;46.60
66486;BME280;53303;47.476;8.084;2023-05-12T00:54:16;94951.44;;;21.23;46.68
66486;BME280;53303;47.476;8.084;2023-05-12T00:56:41;94925.34;;;21.13;46.69
66486;BME280;53303;47.476;8.084;2023-05-12T00:59:07;94945.91;;;21.23;46.82
66486;BME280;53303;47.476;8.084;2023-05-12T01:01:33;94945.13;;;21.23;46.63
66486;BME280;53303;47.476;8.084;2023-05-12T01:04:00;94947.91;;;21.23;46.72
66486;BME280;53303;47.476;8.084;2023-05-12T01:06:42;94938.84;;;21.22;46.76
66486;BME280;53303;47.476;8.084;2023-05-12T01:09:09;94942.91;;;21.21;46.85
66486;BME280;53303;47.476;8.084;2023-05-12T01:11:35;94942.13;;;21.21;46.70
66486;BME280;53303;47.476;8.084;2023-05-12T01:14:03;94947.69;;;21.21;46.82
66486;BME280;53303;47.476;8.084;2023-05-12T01:16:34;94953.44;;;21.23;46.75
66486;BME280;53303;47.476;8.084;2023-05-12T01:19:04;94939.22;;;21.13;46.70
66486;BME280;53303;47.476;8.084;2023-05-12T01:21:31;94930.91;;;21.13;46.63
66486;BME280;53303;47.476;8.084;2023-05-12T01:23:58;94934.94;;;21.12;46.64
66486;BME280;53303;47.476;8.084;2023-05-12T01:26:26;94952.72;;;21.22;46.65
66486;BME280;53303;47.476;8.084;2023-05-12T01:28:56;94942.91;;;21.21;46.79
66486;BME280;53303;47.476;8.084;2023-05-12T01:31:22;94930.69;;;21.11;46.70
66486;BME280;53303;47.476;8.084;2023-05-12T01:33:48;94930.16;;;21.13;46.65
66486;BME280;53303;47.476;8.084;2023-05-12T01:36:13;94932.16;;;21.12;46.91
66486;BME280;53303;47.476;8.084;2023-05-12T01:38:39;94933.47;;;21.11;46.78
66486;BME280;53303;47.476;8.084;2023-05-12T01:41:04;94953.22;;;21.21;46.85
66486;BME280;53303;47.476;8.084;2023-05-12T01:43:30;94942.44;;;21.17;46.69
66486;BME280;53303;47.476;8.084;2023-05-12T01:45:57;94949.72;;;21.20;46.63
66486;BME280;53303;47.476;8.084;2023-05-12T01:48:26;94951.22;;;21.21;46.79
66486;BME280;53303;47.476;8.084;2023-05-12T01:50:51;94955.78;;;21.19;46.48
66486;BME280;53303;47.476;8.084;2023-05-12T01:53:16;94933.47;;;21.11;46.70
66486;BME280;53303;47.476;8.084;2023-05-12T01:55:42;94945.22;;;21.17;46.64
66486;BME280;53303;47.476;8.084;2023-05-12T01:58:07;94949.72;;;21.20;46.85
66486;BME280;53303;47.476;8.084;2023-05-12T02:00:32;94953.22;;;21.21;46.84
66486;BME280;53303;47.476;8.084;2023-05-12T02:02:58;94959.31;;;21.19;46.66
66486;BME280;53303;47.476;8.084;2023-05-12T02:05:23;94938.50;;;21.13;46.77
66486;BME280;53303;47.476;8.084;2023-05-12T02:07:48;94939.00;;;21.11;46.79
66486;BME280;53303;47.476;8.084;2023-05-12T02:10:14;94934.94;;;21.12;46.77
66486;BME280;53303;47.476;8.084;2023-05-12T02:12:39;94934.41;;;21.14;46.77
66486;BME280;53303;47.476;8.084;2023-05-12T02:15:05;94949.50;;;21.18;46.83
66486;BME280;53303;47.476;8.084;2023-05-12T02:17:31;94946.22;;;21.20;46.63
66486;BME280;53303;47.476;8.084;2023-05-12T02:19:56;94921.16;;;21.06;46.64
66486;BME280;53303;47.476;8.084;2023-05-12T02:22:24;94936.97;;;21.11;46.74
66486;BME280;53303;47.476;8.084;2023-05-12T02:24:52;94948.22;;;21.19;46.74
66486;BME280;53303;47.476;8.084;2023-05-12T02:27:18;94930.00;;;21.05;46.71
66486;BME280;53303;47.476;8.084;2023-05-12T02:29:46;94950.97;;;21.19;46.68
66486;BME280;53303;47.476;8.084;2023-05-12T02:32:16;94944.69;;;21.19;46.60
66486;BME280;53303;47.476;8.084;2023-05-12T02:34:41;94947.47;;;21.19;46.70
66486;BME280;53303;47.476;8.084;2023-05-12T02:37:06;94942.44;;;21.17;46.84
66486;BME280;53303;47.476;8.084;2023-05-12T02:39:32;94939.22;;;21.13;46.77
66486;BME280;53303;47.476;8.084;2023-05-12T02:41:59;94945.97;;;21.18;46.80
66486;BME280;53303;47.476;8.084;2023-05-12T02:44:27;94941.19;;;21.18;46.81
66486;BME280;53303;47.476;8.084;2023-05-12T02:46:55;94934.88;;;21.18;46.86
66486;BME280;53303;47.476;8.084;2023-05-12T02:49:22;94933.25;;;21.09;46.76
66486;BME280;53303;47.476;8.084;2023-05-12T02:51:47;94938.41;;;21.18;46.73
66486;BME280;53303;47.476;8.084;2023-05-12T02:54:13;94926.41;;;21.10;46.92
66486;BME280;53303;47.476;8.084;2023-05-12T02:56:40;94928.13;;;21.13;47.03
66486;BME280;53303;47.476;8.084;2023-05-12T02:59:06;94938.41;;;21.18;46.65
66486;BME280;53303;47.476;8.084;2023-05-12T03:01:31;94930.38;;;21.15;46.66
66486;BME280;53303;47.476;8.084;2023-05-12T03:03:57;94936.47;;;21.13;46.71
66486;BME280;53303;47.476;8.084;2023-05-12T03:09:44;94923.41;;;21.08;46.87
66486;BME280;53303;47.476;8.084;2023-05-12T03:12:09;94942.22;;;21.15;46.79
66486;BME280;53303;47.476;8.084;2023-05-12T03:14:37;94925.97;;;21.06;46.84
66486;BME280;53303;47.476;8.084;2023-05-12T03:17:05;94933.16;;;21.15;46.74
66486;BME280;53303;47.476;8.084;2023-05-12T03:19:31;94945.75;;;21.16;46.92
66486;BME280;53303;47.476;8.084;2023-05-12T03:21:56;94921.69;;;21.05;46.66
66486;BME280;53303;47.476;8.084;2023-05-12T03:24:24;94929.66;;;21.14;46.93
66486;BME280;53303;47.476;8.084;2023-05-12T03:26:52;94929.41;;;21.12;46.81
66486;BME280;53303;47.476;8.084;2023-05-12T03:29:18;94939.44;;;21.15;46.78
66486;BME280;53303;47.476;8.084;2023-05-12T03:31:44;94936.69;;;21.15;46.70
66486;BME280;53303;47.476;8.084;2023-05-12T03:34:09;94928.66;;;21.11;46.78
66486;BME280;53303;47.476;8.084;2023-05-12T03:36:38;94928.44;;;21.09;46.59
66486;BME280;53303;47.476;8.084;2023-05-12T03:39:03;94929.09;;;21.16;46.76
66486;BME280;53303;47.476;8.084;2023-05-12T03:41:29;94928.34;;;21.15;46.78
66486;BME280;53303;47.476;8.084;2023-05-12T03:43:54;94919.38;;;21.09;47.05
66486;BME280;53303;47.476;8.084;2023-05-12T03:46:19;94929.66;;;21.14;46.69
66486;BME280;53303;47.476;8.084;2023-05-12T03:48:45;94930.38;;;21.15;46.77
66486;BME280;53303;47.476;8.084;2023-05-12T03:51:11;94922.06;;;21.15;46.73
66486;BME280;53303;47.476;8.084;2023-05-12T03:53:38;94925.66;;;21.09;46.65
66486;BME280;53303;47.476;8.084;2023-05-12T03:56:06;94924.09;;;21.14;46.67
66486;BME280;53303;47.476;8.084;2023-05-12T03:58:32;94913.81;;;21.09;46.69
66486;BME280;53303;47.476;8.084;2023-05-12T04:00:58;94928.34;;;21.15;46.35
66486;BME280;53303;47.476;8.084;2023-05-12T04:03:26;94922.81;;;21.15;46.41
66486;BME280;53303;47.476;8.084;2023-05-12T04:06:01;94922.81;;;21.15;46.24
66486;BME280;53303;47.476;8.084;2023-05-12T04:08:28;94914.03;;;21.11;46.04
66486;BME280;53303;47.476;8.084;2023-05-12T04:10:56;94921.31;;;21.14;45.79
66486;BME280;53303;47.476;8.084;2023-05-12T04:13:23;94923.53;;;21.16;45.53
66486;BME280;53303;47.476;8.084;2023-05-12T04:15:48;94909.03;;;21.09;45.66
66486;BME280;53303;47.476;8.084;2023-05-12T04:18:14;94912.22;;;21.14;45.59
66486;BME280;53303;47.476;8.084;2023-05-12T04:20:40;94905.28;;;21.07;45.54
66486;BME280;53303;47.476;8.084;2023-05-12T04:23:05;94914.47;;;21.15;45.58
66486;BME280;53303;47.476;8.084;2023-05-12T04:25:31;94922.81;;;21.15;45.59
66486;BME280;53303;47.476;8.084;2023-05-12T04:27:59;94922.59;;;21.13;45.93
66486;BME280;53303;47.476;8.084;2023-05-12T04:30:24;94914.13;;;21.05;45.79
66486;BME280;53303;47.476;8.084;2023-05-12T04:32:50;94916.28;;;21.13;45.60
66486;BME280;53303;47.476;8.084;2023-05-12T04:35:15;94913.91;;;21.03;45.98
66486;BME280;53303;47.476;8.084;2023-05-12T04:37:41;94911.34;;;21.05;45.72
66486;BME280;53303;47.476;8.084;2023-05-12T04:40:07;94923.03;;;21.17;45.79
66486;BME280;53303;47.476;8.084;2023-05-12T04:42:33;94926.56;;;21.18;45.81
66486;BME280;53303;47.476;8.084;2023-05-12T04:44:58;94923.41;;;21.08;45.81
66486;BME280;53303;47.476;8.084;2023-05-12T04:47:24;94921.63;;;21.10;45.83
66486;BME280;53303;47.476;8.084;2023-05-12T04:49:49;94913.81;;;21.09;45.89
66486;BME280;53303;47.476;8.084;2023-05-12T04:52:15;94916.81;;;21.11;45.67
66486;BME280;53303;47.476;8.084;2023-05-12T04:54:40;94931.34;;;21.17;46.01
66486;BME280;53303;47.476;8.084;2023-05-12T04:57:06;94932.84;;;21.18;46.00
66486;BME280;53303;47.476;8.084;2023-05-12T04:59:31;94934.88;;;21.18;45.84
66486;BME280;53303;47.476;8.084;2023-05-12T05:01:56;94921.16;;;21.06;46.08
66486;BME280;53303;47.476;8.084;2023-05-12T05:04:22;94947.47;;;21.19;46.06
66486;BME280;53303;47.476;8.084;2023-05-12T05:06:50;94941.19;;;21.18;45.95
66486;BME280;53303;47.476;8.084;2023-05-12T05:09:15;94933.78;;;21.07;45.93
66486;BME280;53303;47.476;8.084;2023-05-12T05:11:40;94933.97;;;21.09;45.99
66486;BME280;53303;47.476;8.084;2023-05-12T05:14:06;94945.22;;;21.17;45.87
66486;BME280;53303;47.476;8.084;2023-05-12T05:16:31;94915.03;;;20.95;45.84
66486;BME280;53303;47.476;8.084;2023-05-12T05:18:57;94930.00;;;21.05;45.97
66486;BME280;53303;47.476;8.084;2023-05-12T05:21:22;94944.78;;;21.13;45.73
66486;BME280;53303;47.476;8.084;2023-05-12T05:23:48;94933.47;;;21.11;46.00
66486;BME280;53303;47.476;8.084;2023-05-12T05:26:13;94938.94;;;21.17;46.02
66486;BME280;53303;47.476;8.084;2023-05-12T05:28:38;94928.22;;;21.07;46.19
66486;BME280;53303;47.476;8.084;2023-05-12T05:31:05;94953.22;;;21.21;45.85
66486;BME280;53303;47.476;8.084;2023-05-12T05:33:30;94949.28;;;21.16;46.34
66486;BME280;53303;47.476;8.084;2023-05-12T05:35:56;94943.50;;;21.14;45.97
66486;BME280;53303;47.476;8.084;2023-05-12T05:38:22;94942.00;;;21.13;46.12
66486;BME280;53303;47.476;8.084;2023-05-12T05:40:47;94942.75;;;21.14;46.09
66486;BME280;53303;47.476;8.084;2023-05-12T05:43:12;94945.81;;;21.10;46.12
66486;BME280;53303;47.476;8.084;2023-05-12T05:45:38;94945.00;;;21.15;46.02
66486;BME280;53303;47.476;8.084;2023-05-12T05:48:03;94944.56;;;21.11;46.18
66486;BME280;53303;47.476;8.084;2023-05-12T05:50:29;94950.53;;;21.15;46.01
66486;BME280;53303;47.476;8.084;2023-05-12T05:52:54;94945.81;;;21.10;45.93
66486;BME280;53303;47.476;8.084;2023-05-12T05:55:20;94962.31;;;21.21;45.95
66486;BME280;53303;47.476;8.084;2023-05-12T05:57:46;94961.03;;;21.22;45.95
66486;BME280;53303;47.476;8.084;2023-05-12T06:00:12;94961.03;;;21.22;45.97
66486;BME280;53303;47.476;8.084;2023-05-12T06:02:39;94963.81;;;21.22;46.14
66486;BME280;53303;47.476;8.084;2023-05-12T06:05:05;94957.31;;;21.20;46.15
66486;BME280;53303;47.476;8.084;2023-05-12T06:07:31;94955.28;;;21.20;45.94
66486;BME280;53303;47.476;8.084;2023-05-12T06:09:56;94967.31;;;21.23;45.93
66486;BME280;53303;47.476;8.084;2023-05-12T06:12:22;94954.38;;;21.12;45.88
66486;BME280;53303;47.476;8.084;2023-05-12T06:14:50;94970.09;;;21.23;46.05
66486;BME280;53303;47.476;8.084;2023-05-12T06:17:20;94967.88;;;21.21;46.04
66486;BME280;53303;47.476;8.084;2023-05-12T06:19:46;94960.69;;;21.13;45.97
66486;BME280;53303;47.476;8.084;2023-05-12T06:22:14;94973.88;;;21.25;46.02
66486;BME280;53303;47.476;8.084;2023-05-12T06:24:40;94954.38;;;21.12;46.24
66486;BME280;53303;47.476;8.084;2023-05-12T06:27:06;94956.31;;;21.17;46.30
66486;BME280;53303;47.476;8.084;2023-05-12T06:29:32;94968.31;;;21.25;46.18
66486;BME280;53303;47.476;8.084;2023-05-12T06:31:57;94961.84;;;21.17;46.14
66486;BME280;53303;47.476;8.084;2023-05-12T06:34:23;94970.09;;;21.23;46.07
66486;BME280;53303;47.476;8.084;2023-05-12T06:36:48;94969.56;;;21.24;46.26
66486;BME280;53303;47.476;8.084;2023-05-12T06:39:14;94971.09;;;21.25;46.19
66486;BME280;53303;47.476;8.084;2023-05-12T06:41:40;94963.81;;;21.22;45.91
66486;BME280;53303;47.476;8.084;2023-05-12T06:44:05;94971.41;;;21.22;46.00
66486;BME280;53303;47.476;8.084;2023-05-12T06:46:35;94980.38;;;21.28;46.01
66486;BME280;53303;47.476;8.084;2023-05-12T06:49:01;94972.81;;;21.28;46.15
66486;BME280;53303;47.476;8.084;2023-05-12T06:51:26;94972.03;;;21.28;45.98
66486;BME280;53303;47.476;8.084;2023-05-12T06:53:51;94971.69;;;21.18;46.10
66486;BME280;53303;47.476;8.084;2023-05-12T06:56:17;94974.31;;;21.29;46.10
66486;BME280;53303;47.476;8.084;2023-05-12T06:58:42;94977.06;;;21.29;46.08
66486;BME280;53303;47.476;8.084;2023-05-12T07:01:08;94954.53;;;21.20;46.12
66486;BME280;53303;47.476;8.084;2023-05-12T07:03:33;94973.56;;;21.29;46.25
66486;BME280;53303;47.476;8.084;2023-05-12T07:05:59;94979.84;;;21.29;46.54
66486;BME280;53303;47.476;8.084;2023-05-12T07:08:25;94973.03;;;21.30;46.28
66486;BME280;53303;47.476;8.084;2023-05-12T07:10:50;94972.28;;;21.30;46.34
66486;BME280;53303;47.476;8.084;2023-05-12T07:13:16;94978.59;;;21.30;46.09
66486;BME280;53303;47.476;8.084;2023-05-12T07:15:41;94970.03;;;21.28;46.20
66486;BME280;53303;47.476;8.084;2023-05-12T07:18:07;94966.50;;;21.28;46.23
66486;BME280;53303;47.476;8.084;2023-05-12T07:20:32;94960.28;;;21.22;46.26
66486;BME280;53303;47.476;8.084;2023-05-12T07:22:58;94982.09;;;21.31;46.38
66486;BME280;53303;47.476;8.084;2023-05-12T07:25:23;94970.78;;;21.29;46.34
66486;BME280;53303;47.476;8.084;2023-05-12T07:27:48;94971.22;;;21.33;46.38
66486;BME280;53303;47.476;8.084;2023-05-12T07:30:14;94960.72;;;21.26;46.32
66486;BME280;53303;47.476;8.084;2023-05-12T07:32:40;94963.41;;;21.32;46.19
66486;BME280;53303;47.476;8.084;2023-05-12T07:35:08;94973.47;;;21.35;46.37
66486;BME280;53303;47.476;8.084;2023-05-12T07:37:34;94965.22;;;21.29;46.25
66486;BME280;53303;47.476;8.084;2023-05-12T07:39:59;94958.47;;;21.24;46.29
66486;BME280;53303;47.476;8.084;2023-05-12T07:42:25;94955.91;;;21.26;46.41
66486;BME280;53303;47.476;8.084;2023-05-12T07:44:50;94966.41;;;21.34;46.24
66486;BME280;53303;47.476;8.084;2023-05-12T07:47:16;94967.94;;;21.35;46.44
66486;BME280;53303;47.476;8.084;2023-05-12T07:49:41;94967.94;;;21.35;46.19
66486;BME280;53303;47.476;8.084;2023-05-12T07:52:06;94971.44;;;21.35;46.32
66486;BME280;53303;47.476;8.084;2023-05-12T07:54:32;94963.88;;;21.36;46.25
66486;BME280;53303;47.476;8.084;2023-05-12T07:57:00;94943.66;;;21.22;46.42
66486;BME280;53303;47.476;8.084;2023-05-12T07:59:25;94962.16;;;21.33;46.12
66486;BME280;53303;47.476;8.084;2023-05-12T08:01:55;94967.63;;;21.38;46.21
66486;BME280;53303;47.476;8.084;2023-05-12T08:04:20;94967.63;;;21.38;46.24
66486;BME280;53303;47.476;8.084;2023-05-12T08:06:46;94963.34;;;21.37;46.31
66486;BME280;53303;47.476;8.084;2023-05-12T08:09:14;94969.13;;;21.39;45.92
66486;BME280;53303;47.476;8.084;2023-05-12T08:11:40;94964.75;;;21.44;45.87
66486;BME280;53303;47.476;8.084;2023-05-12T08:14:06;94961.25;;;21.43;45.90
66486;BME280;53303;47.476;8.084;2023-05-12T08:16:31;94971.75;;;21.51;45.85
66486;BME280;53303;47.476;8.084;2023-05-12T08:18:57;94958.72;;;21.45;45.95
66486;BME280;53303;47.476;8.084;2023-05-12T08:21:22;94961.25;;;21.43;45.87
66486;BME280;53303;47.476;8.084;2023-05-12T08:23:48;94957.25;;;21.39;45.84
66486;BME280;53303;47.476;8.084;2023-05-12T08:26:13;94967.31;;;21.42;46.10
66486;BME280;53303;47.476;8.084;2023-05-12T08:28:39;94964.00;;;21.43;46.07
66486;BME280;53303;47.476;8.084;2023-05-12T08:31:04;94967.78;;;21.46;45.92
66486;BME280;53303;47.476;8.084;2023-05-12T08:33:30;94978.88;;;21.46;46.08
66486;BME280;53303;47.476;8.084;2023-05-12T08:35:55;94971.59;;;21.43;46.18
66486;BME280;53303;47.476;8.084;2023-05-12T08:38:21;94950.53;;;21.34;46.24
66486;BME280;53303;47.476;8.084;2023-05-12T08:40:56;94929.09;;;21.16;45.96
66486;BME280;53303;47.476;8.084;2023-05-12T08:43:37;94974.59;;;21.45;46.08
66486;BME280;53303;47.476;8.084;2023-05-12T08:46:04;94965.66;;;21.33;46.36
66486;BME280;53303;47.476;8.084;2023-05-12T08:48:33;94971.44;;;21.35;46.21
66486;BME280;53303;47.476;8.084;2023-05-12T08:50:59;94973.09;;;21.44;46.28
66486;BME280;53303;47.476;8.084;2023-05-12T08:53:26;94972.59;;;21.45;46.23
66486;BME280;53303;47.476;8.084;2023-05-12T08:55:53;94972.06;;;21.47;45.93
66486;BME280;53303;47.476;8.084;2023-05-12T08:58:23;94970.03;;;21.47;46.02
66486;BME280;53303;47.476;8.084;2023-05-12T09:00:51;94965.59;;;21.39;46.17
66486;BME280;53303;47.476;8.084;2023-05-12T09:03:19;94960.59;;;21.37;45.96
66486;BME280;53303;47.476;8.084;2023-05-12T09:05:45;94964.00;;;21.43;46.24
66486;BME280;53303;47.476;8.084;2023-05-12T09:08:11;94967.53;;;21.44;46.05
66486;BME280;53303;47.476;8.084;2023-05-12T09:10:39;94970.78;;;21.48;46.09
66486;BME280;53303;47.476;8.084;2023-05-12T09:13:13;94963.78;;;21.41;46.02
66486;BME280;53303;47.476;8.084;2023-05-12T09:20:32;94948.19;;;21.38;46.24
66486;BME280;53303;47.476;8.084;2023-05-12T09:22:58;94966.72;;;21.49;46.06
66486;BME280;53303;47.476;8.084;2023-05-12T09:25:24;94961.19;;;21.49;46.27
66486;BME280;53303;47.476;8.084;2023-05-12T09:27:54;94956.66;;;21.46;46.00
66486;BME280;53303;47.476;8.084;2023-05-12T09:30:30;94952.31;;;21.51;46.25
66486;BME280;53303;47.476;8.084;2023-05-12T09:33:12;94935.81;;;21.39;46.24
66486;BME280;53303;47.476;8.084;2023-05-12T09:35:42;94938.28;;;21.43;46.21
66486;BME280;53303;47.476;8.084;2023-05-12T09:38:09;94948.50;;;21.54;46.14
66486;BME280;53303;47.476;8.084;2023-05-12T09:40:34;94950.50;;;21.53;46.33
66486;BME280;53303;47.476;8.084;2023-05-12T09:43:01;94942.50;;;21.49;46.17
66486;BME280;53303;47.476;8.084;2023-05-12T09:45:32;94937.50;;;21.48;46.34
66486;BME280;53303;47.476;8.084;2023-05-12T09:48:06;94943.25;;;21.50;45.98
66486;BME280;53303;47.476;8.084;2023-05-12T09:50:32;94939.28;;;21.45;46.23
66486;BME280;53303;47.476;8.084;2023-05-12T09:52:57;94935.34;;;21.54;46.26
66486;BME280;53303;47.476;8.084;2023-05-12T09:55:23;94938.34;;;21.56;46.24
66486;BME280;53303;47.476;8.084;2023-05-12T09:57:52;94943.91;;;21.56;46.27
66486;BME280;53303;47.476;8.084;2023-05-12T10:00:18;94941.34;;;21.58;46.22
66486;BME280;53303;47.476;8.084;2023-05-12T10:02:47;94940.59;;;21.58;46.05
66486;BME280;53303;47.476;8.084;2023-05-12T10:05:14;94935.78;;;21.58;46.13
66486;BME280;53303;47.476;8.084;2023-05-12T10:07:44;94942.13;;;21.59;46.18
66486;BME280;53303;47.476;8.084;2023-05-12T10:10:19;94926.06;;;21.52;45.98
66486;BME280;53303;47.476;8.084;2023-05-12T10:12:45;94940.28;;;21.61;46.33
66486;BME280;53303;47.476;8.084;2023-05-12T10:15:12;94936.56;;;21.59;46.17
66486;BME280;53303;47.476;8.084;2023-05-12T10:17:39;94938.03;;;21.60;46.17
66486;BME280;53303;47.476;8.084;2023-05-12T10:20:06;94941.81;;;21.62;46.23
66486;BME280;53303;47.476;8.084;2023-05-12T10:22:37;94939.03;;;21.62;46.09
66486;BME280;53303;47.476;8.084;2023-05-12T10:25:05;94937.50;;;21.61;46.21
66486;BME280;53303;47.476;8.084;2023-05-12T10:27:33;94936.25;;;21.62;46.07
66486;BME280;53303;47.476;8.084;2023-05-12T10:30:00;94934.53;;;21.59;46.26
66486;BME280;53303;47.476;8.084;2023-05-12T10:32:26;94932.06;;;21.56;46.34
66486;BME280;53303;47.476;8.084;2023-05-12T10:35:06;94928.09;;;21.51;46.33
66486;BME280;53303;47.476;8.084;2023-05-12T10:37:34;94931.22;;;21.61;46.20
66486;BME280;53303;47.476;8.084;2023-05-12T10:40:00;94930.69;;;21.62;46.27
66486;BME280;53303;47.476;8.084;2023-05-12T10:42:39;94926.94;;;21.60;46.17
66486;BME280;53303;47.476;8.084;2023-05-12T10:45:15;94920.06;;;21.47;46.54
66486;BME280;53303;47.476;8.084;2023-05-12T10:47:47;94913.88;;;21.55;46.35
66486;BME280;53303;47.476;8.084;2023-05-12T10:50:12;94909.63;;;21.54;46.57
66486;BME280;53303;47.476;8.084;2023-05-12T10:52:58;94917.66;;;21.57;46.31
66486;BME280;53303;47.476;8.084;2023-05-12T10:55:41;94906.19;;;21.47;46.28
66486;BME280;53303;47.476;8.084;2023-05-12T10:58:11;94922.38;;;21.62;46.33
66486;BME280;53303;47.476;8.084;2023-05-12T11:00:45;94911.03;;;21.60;46.11
66486;BME280;53303;47.476;8.084;2023-05-12T11:03:13;94919.34;;;21.60;46.25
66486;BME280;53303;47.476;8.084;2023-05-12T11:05:38;94902.03;;;21.54;46.26
66486;BME280;53303;47.476;8.084;2023-05-12T11:08:04;94912.09;;;21.57;46.21
66486;BME280;53303;47.476;8.084;2023-05-12T11:10:29;94919.59;;;21.62;46.47
66486;BME280;53303;47.476;8.084;2023-05-12T11:12:57;94916.56;;;21.60;46.27
66486;BME280;53303;47.476;8.084;2023-05-12T11:15:23;94925.16;;;21.62;46.40
66486;BME280;53303;47.476;8.084;2023-05-12T11:17:48;94922.78;;;21.66;46.50
66486;BME280;53303;47.476;8.084;2023-05-12T11:20:24;94932.91;;;21.64;46.29
66486;BME280;53303;47.476;8.084;2023-05-12T11:22:50;94933.16;;;21.66;46.20
66486;BME280;53303;47.476;8.084;2023-05-12T11:25:17;94924.91;;;21.60;46.50
66486;BME280;53303;47.476;8.084;2023-05-12T11:27:47;94912.09;;;21.57;46.23
66486;BME280;53303;47.476;8.084;2023-05-12T11:30:13;94934.13;;;21.68;46.43
66486;BME280;53303;47.476;8.084;2023-05-12T11:32:38;94930.59;;;21.68;46.40
66486;BME280;53303;47.476;8.084;2023-05-12T11:35:15;94931.88;;;21.67;46.33
66486;BME280;53303;47.476;8.084;2023-05-12T11:37:41;94928.56;;;21.68;46.30
66486;BME280;53303;47.476;8.084;2023-05-12T11:40:21;94925.56;;;21.66;46.46
66486;BME280;53303;47.476;8.084;2023-05-12T11:42:49;94926.53;;;21.69;46.32
66486;BME280;53303;47.476;8.084;2023-05-12T11:45:27;94925.78;;;21.68;46.45
66486;BME280;53303;47.476;8.084;2023-05-12T11:48:13;94927.09;;;21.67;46.43
66486;BME280;53303;47.476;8.084;2023-05-12T11:50:43;94920.31;;;21.63;46.39
66486;BME280;53303;47.476;8.084;2023-05-12T11:53:13;94920.22;;;21.68;46.27
66486;BME280;53303;47.476;8.084;2023-05-12T11:55:55;94920.03;;;21.66;46.37
66486;BME280;53303;47.476;8.084;2023-05-12T11:58:23;94921.75;;;21.70;46.86
66486;BME280;53303;47.476;8.084;2023-05-12T12:00:51;94909.53;;;21.59;47.14
66486;BME280;53303;47.476;8.084;2023-05-12T12:03:16;94925.25;;;21.70;47.58
66486;BME280;53303;47.476;8.084;2023-05-12T12:05:44;94925.47;;;21.72;47.88
66486;BME280;53303;47.476;8.084;2023-05-12T12:08:11;94920.75;;;21.67;48.13
66486;BME280;53303;47.476;8.084;2023-05-12T12:10:38;94930.06;;;21.70;48.21
66486;BME280;53303;47.476;8.084;2023-05-12T12:13:04;94925.03;;;21.68;48.22
66486;BME280;53303;47.476;8.084;2023-05-12T12:15:30;94925.03;;;21.68;48.42
66486;BME280;53303;47.476;8.084;2023-05-12T12:17:55;94919.34;;;21.60;48.22
66486;BME280;53303;47.476;8.084;2023-05-12T12:20:21;94926.78;;;21.71;48.30
66486;BME280;53303;47.476;8.084;2023-05-12T12:22:49;94919.81;;;21.64;48.38
66486;BME280;53303;47.476;8.084;2023-05-12T12:25:14;94931.56;;;21.71;48.23
66486;BME280;53303;47.476;8.084;2023-05-12T12:27:39;94927.09;;;21.67;48.18
66486;BME280;53303;47.476;8.084;2023-05-12T12:30:05;94912.53;;;21.61;48.13
66486;BME280;53303;47.476;8.084;2023-05-12T12:32:31;94920.75;;;21.67;48.05
66486;BME280;53303;47.476;8.084;2023-05-12T12:34:57;94912.31;;;21.59;47.97
66486;BME280;53303;47.476;8.084;2023-05-12T12:37:24;94916.25;;;21.64;47.86
66486;BME280;53303;47.476;8.084;2023-05-12T12:39:50;94918.28;;;21.63;47.88
66486;BME280;53303;47.476;8.084;2023-05-12T12:42:15;94926.00;;;21.71;47.88
66486;BME280;53303;47.476;8.084;2023-05-12T12:44:41;94930.28;;;21.72;47.81
66486;BME280;53303;47.476;8.084;2023-05-12T12:47:07;94904.72;;;21.60;47.90
66486;BME280;53303;47.476;8.084;2023-05-12T12:49:33;94918.97;;;21.70;47.89
66486;BME280;53303;47.476;8.084;2023-05-12T12:51:58;94921.94;;;21.72;47.84
66486;BME280;53303;47.476;8.084;2023-05-12T12:54:27;94920.66;;;21.73;47.71
66486;BME280;53303;47.476;8.084;2023-05-12T12:56:52;94917.47;;;21.68;47.92
66486;BME280;53303;47.476;8.084;2023-05-12T12:59:18;94909.88;;;21.69;47.73
66486;BME280;53303;47.476;8.084;2023-05-12T13:01:43;94920.13;;;21.74;47.66
66486;BME280;53303;47.476;8.084;2023-05-12T13:04:08;94920.03;;;21.80;47.45
66486;BME280;53303;47.476;8.084;2023-05-12T13:06:34;94912.16;;;21.84;47.44